Smoky Cape Lighthouse Sw Rocks, Australia
Current Conditions -  °F | °C
As of 4:00 PM on Tuesday 21 Oct 2014 (Local Time) from YCFS Reporting Station
Overcast Overcast  
Wind Chill: 68°   Ceiling: 6000
Heat Index: 68°   Visibility: 6mi
Dew Point: 50°   Wind: 18mph
Humidity: 52%   Direction: 170°S
Pressure: 30.36"   Gusts: NA
Location:  30.92°S, 153.08°E
Report Text: YCFS 210500Z AUTO 17016KT 9999 // OVC060 20/10 Q1028
Loading
Personal Weather Stations






























Interactive Weather Map
Tropical Storm Tracking
New forecast layout! Learn more

10-Day Weather Forecast

Advertisements
Track Severe Weather on mobile